sensor_id;sensor_type;location;lat;lon;timestamp;P1;durP1;ratioP1;P2;durP2;ratioP2
66087;SDS011;52872;52.994;6.940;2023-01-05T00:01:41;18.85;;;2.78;;
66087;SDS011;52872;52.994;6.940;2023-01-05T00:04:08;14.32;;;3.13;;
66087;SDS011;52872;52.994;6.940;2023-01-05T00:06:35;17.40;;;3.58;;
66087;SDS011;52872;52.994;6.940;2023-01-05T00:09:03;11.38;;;2.75;;
66087;SDS011;52872;52.994;6.940;2023-01-05T00:11:31;11.65;;;2.67;;
66087;SDS011;52872;52.994;6.940;2023-01-05T00:14:18;13.30;;;2.47;;
66087;SDS011;52872;52.994;6.940;2023-01-05T00:17:06;12.68;;;2.90;;
66087;SDS011;52872;52.994;6.940;2023-01-05T00:19:54;12.43;;;2.60;;
66087;SDS011;52872;52.994;6.940;2023-01-05T00:25:11;15.40;;;2.55;;
66087;SDS011;52872;52.994;6.940;2023-01-05T00:27:49;10.02;;;2.60;;
66087;SDS011;52872;52.994;6.940;2023-01-05T00:30:18;13.38;;;2.85;;
66087;SDS011;52872;52.994;6.940;2023-01-05T00:32:47;13.00;;;2.92;;
66087;SDS011;52872;52.994;6.940;2023-01-05T00:35:15;14.82;;;2.88;;
66087;SDS011;52872;52.994;6.940;2023-01-05T00:37:42;14.70;;;3.22;;
66087;SDS011;52872;52.994;6.940;2023-01-05T00:40:12;15.02;;;3.60;;
66087;SDS011;52872;52.994;6.940;2023-01-05T00:42:40;13.63;;;2.85;;
66087;SDS011;52872;52.994;6.940;2023-01-05T00:45:09;16.90;;;3.58;;
66087;SDS011;52872;52.994;6.940;2023-01-05T00:47:38;13.43;;;3.72;;
66087;SDS011;52872;52.994;6.940;2023-01-05T00:50:05;16.27;;;3.25;;
66087;SDS011;52872;52.994;6.940;2023-01-05T00:52:33;14.98;;;2.90;;
66087;SDS011;52872;52.994;6.940;2023-01-05T00:55:00;16.13;;;3.47;;
66087;SDS011;52872;52.994;6.940;2023-01-05T00:57:27;17.58;;;4.90;;
66087;SDS011;52872;52.994;6.940;2023-01-05T00:59:54;14.52;;;3.33;;
66087;SDS011;52872;52.994;6.940;2023-01-05T01:02:21;14.50;;;3.15;;
66087;SDS011;52872;52.994;6.940;2023-01-05T01:04:48;14.23;;;3.58;;
66087;SDS011;52872;52.994;6.940;2023-01-05T01:07:15;21.23;;;3.35;;
66087;SDS011;52872;52.994;6.940;2023-01-05T01:09:42;17.88;;;4.55;;
66087;SDS011;52872;52.994;6.940;2023-01-05T01:12:09;15.07;;;3.42;;
66087;SDS011;52872;52.994;6.940;2023-01-05T01:14:37;16.02;;;3.47;;
66087;SDS011;52872;52.994;6.940;2023-01-05T01:17:04;15.68;;;3.53;;
66087;SDS011;52872;52.994;6.940;2023-01-05T01:19:31;13.23;;;3.55;;
66087;SDS011;52872;52.994;6.940;2023-01-05T01:21:59;15.80;;;3.70;;
66087;SDS011;52872;52.994;6.940;2023-01-05T01:24:27;17.92;;;3.80;;
66087;SDS011;52872;52.994;6.940;2023-01-05T01:26:54;17.08;;;3.92;;
66087;SDS011;52872;52.994;6.940;2023-01-05T01:29:22;17.65;;;3.03;;
66087;SDS011;52872;52.994;6.940;2023-01-05T01:31:51;17.52;;;3.78;;
66087;SDS011;52872;52.994;6.940;2023-01-05T01:34:19;21.10;;;4.03;;
66087;SDS011;52872;52.994;6.940;2023-01-05T01:36:46;16.77;;;3.15;;
66087;SDS011;52872;52.994;6.940;2023-01-05T01:39:17;17.85;;;3.55;;
66087;SDS011;52872;52.994;6.940;2023-01-05T01:41:48;17.50;;;3.80;;
66087;SDS011;52872;52.994;6.940;2023-01-05T01:52:54;13.95;;;3.22;;
66087;SDS011;52872;52.994;6.940;2023-01-05T01:55:26;16.90;;;2.77;;
66087;SDS011;52872;52.994;6.940;2023-01-05T01:57:55;15.07;;;3.63;;
66087;SDS011;52872;52.994;6.940;2023-01-05T02:00:23;18.23;;;3.67;;
66087;SDS011;52872;52.994;6.940;2023-01-05T02:02:53;14.20;;;3.40;;
66087;SDS011;52872;52.994;6.940;2023-01-05T02:05:23;15.60;;;3.13;;
66087;SDS011;52872;52.994;6.940;2023-01-05T02:07:54;14.50;;;3.53;;
66087;SDS011;52872;52.994;6.940;2023-01-05T02:10:26;16.25;;;3.38;;
66087;SDS011;52872;52.994;6.940;2023-01-05T02:13:50;19.90;;;3.30;;
66087;SDS011;52872;52.994;6.940;2023-01-05T02:25:05;14.05;;;3.30;;
66087;SDS011;52872;52.994;6.940;2023-01-05T02:28:07;11.73;;;3.03;;
66087;SDS011;52872;52.994;6.940;2023-01-05T02:36:29;14.38;;;3.42;;
66087;SDS011;52872;52.994;6.940;2023-01-05T02:39:16;19.90;;;3.50;;
66087;SDS011;52872;52.994;6.940;2023-01-05T02:44:28;16.33;;;3.88;;
66087;SDS011;52872;52.994;6.940;2023-01-05T02:47:00;14.10;;;3.25;;
66087;SDS011;52872;52.994;6.940;2023-01-05T02:49:48;20.02;;;3.38;;
66087;SDS011;52872;52.994;6.940;2023-01-05T02:52:15;18.17;;;3.00;;
66087;SDS011;52872;52.994;6.940;2023-01-05T02:54:47;17.60;;;3.92;;
66087;SDS011;52872;52.994;6.940;2023-01-05T02:57:27;15.38;;;3.60;;
66087;SDS011;52872;52.994;6.940;2023-01-05T03:02:55;11.45;;;3.15;;
66087;SDS011;52872;52.994;6.940;2023-01-05T03:05:41;17.52;;;3.15;;
66087;SDS011;52872;52.994;6.940;2023-01-05T03:08:13;20.13;;;3.75;;
66087;SDS011;52872;52.994;6.940;2023-01-05T03:10:59;20.90;;;3.75;;
66087;SDS011;52872;52.994;6.940;2023-01-05T03:13:53;15.48;;;4.03;;
66087;SDS011;52872;52.994;6.940;2023-01-05T03:16:42;20.33;;;3.45;;
66087;SDS011;52872;52.994;6.940;2023-01-05T03:19:14;13.82;;;3.50;;
66087;SDS011;52872;52.994;6.940;2023-01-05T03:22:12;15.77;;;3.60;;
66087;SDS011;52872;52.994;6.940;2023-01-05T03:25:01;15.68;;;3.88;;
66087;SDS011;52872;52.994;6.940;2023-01-05T03:27:48;16.67;;;3.63;;
66087;SDS011;52872;52.994;6.940;2023-01-05T03:36:46;16.90;;;3.60;;
66087;SDS011;52872;52.994;6.940;2023-01-05T03:39:17;19.23;;;4.30;;
66087;SDS011;52872;52.994;6.940;2023-01-05T03:41:46;16.45;;;3.25;;
66087;SDS011;52872;52.994;6.940;2023-01-05T03:44:14;21.52;;;3.30;;
66087;SDS011;52872;52.994;6.940;2023-01-05T03:46:42;25.88;;;4.05;;
66087;SDS011;52872;52.994;6.940;2023-01-05T03:49:09;17.92;;;3.03;;
66087;SDS011;52872;52.994;6.940;2023-01-05T03:51:36;19.85;;;3.72;;
66087;SDS011;52872;52.994;6.940;2023-01-05T03:54:07;12.95;;;3.00;;
66087;SDS011;52872;52.994;6.940;2023-01-05T03:56:36;15.80;;;3.40;;
66087;SDS011;52872;52.994;6.940;2023-01-05T03:59:04;14.25;;;3.90;;
66087;SDS011;52872;52.994;6.940;2023-01-05T04:01:32;17.05;;;3.05;;
66087;SDS011;52872;52.994;6.940;2023-01-05T04:03:59;16.20;;;3.55;;
66087;SDS011;52872;52.994;6.940;2023-01-05T04:06:26;16.50;;;2.95;;
66087;SDS011;52872;52.994;6.940;2023-01-05T04:08:54;16.95;;;3.45;;
66087;SDS011;52872;52.994;6.940;2023-01-05T04:11:22;18.73;;;3.72;;
66087;SDS011;52872;52.994;6.940;2023-01-05T04:14:02;15.13;;;3.35;;
66087;SDS011;52872;52.994;6.940;2023-01-05T04:16:32;19.45;;;3.75;;
66087;SDS011;52872;52.994;6.940;2023-01-05T04:19:06;14.50;;;3.42;;
66087;SDS011;52872;52.994;6.940;2023-01-05T04:21:33;16.92;;;3.50;;
66087;SDS011;52872;52.994;6.940;2023-01-05T04:24:01;19.02;;;3.65;;
66087;SDS011;52872;52.994;6.940;2023-01-05T04:26:29;19.75;;;4.03;;
66087;SDS011;52872;52.994;6.940;2023-01-05T04:28:56;16.23;;;3.80;;
66087;SDS011;52872;52.994;6.940;2023-01-05T04:31:24;23.10;;;3.83;;
66087;SDS011;52872;52.994;6.940;2023-01-05T04:33:53;13.60;;;3.78;;
66087;SDS011;52872;52.994;6.940;2023-01-05T04:36:22;22.92;;;4.43;;
66087;SDS011;52872;52.994;6.940;2023-01-05T04:38:52;21.92;;;4.43;;
66087;SDS011;52872;52.994;6.940;2023-01-05T04:41:19;18.52;;;3.85;;
66087;SDS011;52872;52.994;6.940;2023-01-05T04:43:49;18.42;;;3.95;;
66087;SDS011;52872;52.994;6.940;2023-01-05T04:46:16;15.57;;;3.72;;
66087;SDS011;52872;52.994;6.940;2023-01-05T04:48:46;18.17;;;4.25;;
66087;SDS011;52872;52.994;6.940;2023-01-05T04:51:14;18.40;;;3.67;;
66087;SDS011;52872;52.994;6.940;2023-01-05T04:53:41;15.55;;;3.70;;
66087;SDS011;52872;52.994;6.940;2023-01-05T04:56:13;18.38;;;3.80;;
66087;SDS011;52872;52.994;6.940;2023-01-05T04:58:42;17.35;;;4.05;;
66087;SDS011;52872;52.994;6.940;2023-01-05T05:01:10;17.75;;;3.70;;
66087;SDS011;52872;52.994;6.940;2023-01-05T05:03:39;20.42;;;4.07;;
66087;SDS011;52872;52.994;6.940;2023-01-05T05:06:09;20.83;;;3.95;;
66087;SDS011;52872;52.994;6.940;2023-01-05T05:08:36;19.33;;;3.40;;
66087;SDS011;52872;52.994;6.940;2023-01-05T05:11:03;16.50;;;3.10;;
66087;SDS011;52872;52.994;6.940;2023-01-05T05:13:34;16.52;;;3.00;;
66087;SDS011;52872;52.994;6.940;2023-01-05T05:16:01;14.95;;;3.15;;
66087;SDS011;52872;52.994;6.940;2023-01-05T05:18:30;17.40;;;3.25;;
66087;SDS011;52872;52.994;6.940;2023-01-05T05:20:58;14.20;;;3.25;;
66087;SDS011;52872;52.994;6.940;2023-01-05T05:23:30;13.05;;;2.50;;
66087;SDS011;52872;52.994;6.940;2023-01-05T05:25:58;20.20;;;3.65;;
66087;SDS011;52872;52.994;6.940;2023-01-05T05:28:25;13.82;;;3.03;;
66087;SDS011;52872;52.994;6.940;2023-01-05T05:30:53;17.70;;;3.83;;
66087;SDS011;52872;52.994;6.940;2023-01-05T05:33:22;12.43;;;3.25;;
66087;SDS011;52872;52.994;6.940;2023-01-05T05:35:49;16.38;;;3.38;;
66087;SDS011;52872;52.994;6.940;2023-01-05T05:38:16;12.23;;;4.20;;
66087;SDS011;52872;52.994;6.940;2023-01-05T05:40:44;16.27;;;3.58;;
66087;SDS011;52872;52.994;6.940;2023-01-05T05:43:13;19.15;;;3.85;;
66087;SDS011;52872;52.994;6.940;2023-01-05T05:45:43;17.70;;;3.88;;
66087;SDS011;52872;52.994;6.940;2023-01-05T05:48:15;17.00;;;3.75;;
66087;SDS011;52872;52.994;6.940;2023-01-05T05:50:43;12.40;;;3.08;;
66087;SDS011;52872;52.994;6.940;2023-01-05T05:53:11;16.25;;;3.05;;
66087;SDS011;52872;52.994;6.940;2023-01-05T05:55:38;17.45;;;3.33;;
66087;SDS011;52872;52.994;6.940;2023-01-05T05:58:05;15.60;;;3.50;;
66087;SDS011;52872;52.994;6.940;2023-01-05T06:00:32;16.80;;;2.75;;
66087;SDS011;52872;52.994;6.940;2023-01-05T06:02:59;17.00;;;4.00;;
66087;SDS011;52872;52.994;6.940;2023-01-05T06:05:28;15.65;;;3.55;;
66087;SDS011;52872;52.994;6.940;2023-01-05T06:07:55;19.02;;;3.78;;
66087;SDS011;52872;52.994;6.940;2023-01-05T06:10:22;17.35;;;3.75;;
66087;SDS011;52872;52.994;6.940;2023-01-05T06:12:49;18.00;;;4.03;;
66087;SDS011;52872;52.994;6.940;2023-01-05T06:15:18;16.00;;;3.75;;
66087;SDS011;52872;52.994;6.940;2023-01-05T06:17:45;17.27;;;3.60;;
66087;SDS011;52872;52.994;6.940;2023-01-05T06:20:14;15.43;;;4.05;;
66087;SDS011;52872;52.994;6.940;2023-01-05T06:22:42;14.35;;;3.47;;
66087;SDS011;52872;52.994;6.940;2023-01-05T06:25:10;11.98;;;3.55;;
66087;SDS011;52872;52.994;6.940;2023-01-05T06:27:37;17.73;;;3.78;;
66087;SDS011;52872;52.994;6.940;2023-01-05T06:30:04;16.65;;;3.40;;
66087;SDS011;52872;52.994;6.940;2023-01-05T06:32:31;14.05;;;3.53;;
66087;SDS011;52872;52.994;6.940;2023-01-05T06:34:58;16.23;;;3.50;;
66087;SDS011;52872;52.994;6.940;2023-01-05T06:37:25;16.33;;;4.35;;
66087;SDS011;52872;52.994;6.940;2023-01-05T06:39:52;20.17;;;3.97;;
66087;SDS011;52872;52.994;6.940;2023-01-05T06:42:21;15.85;;;3.03;;
66087;SDS011;52872;52.994;6.940;2023-01-05T06:44:49;21.95;;;3.67;;
66087;SDS011;52872;52.994;6.940;2023-01-05T06:47:16;19.67;;;3.92;;
66087;SDS011;52872;52.994;6.940;2023-01-05T06:49:43;16.10;;;3.80;;
66087;SDS011;52872;52.994;6.940;2023-01-05T06:52:10;16.58;;;3.30;;
66087;SDS011;52872;52.994;6.940;2023-01-05T06:54:41;20.08;;;3.45;;
66087;SDS011;52872;52.994;6.940;2023-01-05T06:57:08;14.57;;;3.30;;
66087;SDS011;52872;52.994;6.940;2023-01-05T06:59:36;17.40;;;3.13;;
66087;SDS011;52872;52.994;6.940;2023-01-05T07:02:03;10.02;;;3.25;;
66087;SDS011;52872;52.994;6.940;2023-01-05T07:04:31;18.92;;;3.78;;
66087;SDS011;52872;52.994;6.940;2023-01-05T07:06:58;15.98;;;3.50;;
66087;SDS011;52872;52.994;6.940;2023-01-05T07:09:25;12.43;;;2.80;;
66087;SDS011;52872;52.994;6.940;2023-01-05T07:11:52;14.52;;;3.90;;
66087;SDS011;52872;52.994;6.940;2023-01-05T07:14:19;16.45;;;3.40;;
66087;SDS011;52872;52.994;6.940;2023-01-05T07:16:46;16.85;;;3.95;;
66087;SDS011;52872;52.994;6.940;2023-01-05T07:19:14;16.85;;;3.83;;
66087;SDS011;52872;52.994;6.940;2023-01-05T07:21:41;19.60;;;3.58;;
66087;SDS011;52872;52.994;6.940;2023-01-05T07:24:08;14.95;;;2.92;;
66087;SDS011;52872;52.994;6.940;2023-01-05T07:26:35;18.17;;;3.55;;
66087;SDS011;52872;52.994;6.940;2023-01-05T07:29:02;15.23;;;3.13;;
66087;SDS011;52872;52.994;6.940;2023-01-05T07:31:29;17.52;;;3.53;;
66087;SDS011;52872;52.994;6.940;2023-01-05T07:33:56;19.63;;;3.05;;
66087;SDS011;52872;52.994;6.940;2023-01-05T07:36:23;15.15;;;3.30;;
66087;SDS011;52872;52.994;6.940;2023-01-05T07:38:51;13.10;;;3.30;;
66087;SDS011;52872;52.994;6.940;2023-01-05T07:41:18;12.73;;;3.20;;
66087;SDS011;52872;52.994;6.940;2023-01-05T07:43:49;19.25;;;3.22;;
66087;SDS011;52872;52.994;6.940;2023-01-05T07:46:16;15.68;;;3.53;;
66087;SDS011;52872;52.994;6.940;2023-01-05T07:48:43;14.10;;;2.78;;
66087;SDS011;52872;52.994;6.940;2023-01-05T07:51:10;14.70;;;2.85;;
66087;SDS011;52872;52.994;6.940;2023-01-05T07:53:37;17.13;;;3.60;;
66087;SDS011;52872;52.994;6.940;2023-01-05T07:56:10;14.38;;;3.55;;
66087;SDS011;52872;52.994;6.940;2023-01-05T07:58:37;15.05;;;3.53;;
66087;SDS011;52872;52.994;6.940;2023-01-05T08:01:06;15.90;;;2.95;;
66087;SDS011;52872;52.994;6.940;2023-01-05T08:03:35;16.08;;;2.97;;
66087;SDS011;52872;52.994;6.940;2023-01-05T08:06:03;10.10;;;3.13;;
66087;SDS011;52872;52.994;6.940;2023-01-05T08:08:30;13.13;;;2.92;;
66087;SDS011;52872;52.994;6.940;2023-01-05T08:10:57;13.73;;;3.78;;
66087;SDS011;52872;52.994;6.940;2023-01-05T08:13:24;14.13;;;2.92;;
66087;SDS011;52872;52.994;6.940;2023-01-05T08:16:10;16.27;;;3.10;;
66087;SDS011;52872;52.994;6.940;2023-01-05T08:18:37;15.52;;;3.67;;
66087;SDS011;52872;52.994;6.940;2023-01-05T08:21:04;14.93;;;3.10;;
66087;SDS011;52872;52.994;6.940;2023-01-05T08:23:34;19.45;;;4.00;;
66087;SDS011;52872;52.994;6.940;2023-01-05T08:28:33;11.52;;;2.72;;
66087;SDS011;52872;52.994;6.940;2023-01-05T08:31:05;13.38;;;3.72;;
66087;SDS011;52872;52.994;6.940;2023-01-05T08:33:35;13.90;;;3.40;;
66087;SDS011;52872;52.994;6.940;2023-01-05T08:36:06;17.17;;;3.92;;
66087;SDS011;52872;52.994;6.940;2023-01-05T08:38:34;13.68;;;3.35;;
66087;SDS011;52872;52.994;6.940;2023-01-05T08:41:01;11.57;;;2.70;;
66087;SDS011;52872;52.994;6.940;2023-01-05T08:43:31;20.45;;;4.20;;
66087;SDS011;52872;52.994;6.940;2023-01-05T08:45:58;13.75;;;3.55;;
66087;SDS011;52872;52.994;6.940;2023-01-05T08:48:25;18.63;;;3.60;;
66087;SDS011;52872;52.994;6.940;2023-01-05T08:50:52;13.90;;;3.08;;
66087;SDS011;52872;52.994;6.940;2023-01-05T08:53:20;11.20;;;3.15;;
66087;SDS011;52872;52.994;6.940;2023-01-05T08:55:47;13.13;;;2.88;;
66087;SDS011;52872;52.994;6.940;2023-01-05T08:58:14;16.98;;;3.08;;
66087;SDS011;52872;52.994;6.940;2023-01-05T09:00:41;14.85;;;2.95;;
66087;SDS011;52872;52.994;6.940;2023-01-05T09:03:08;15.35;;;3.22;;
66087;SDS011;52872;52.994;6.940;2023-01-05T09:05:35;12.88;;;2.92;;
66087;SDS011;52872;52.994;6.940;2023-01-05T09:08:02;15.30;;;3.30;;
66087;SDS011;52872;52.994;6.940;2023-01-05T09:10:30;16.02;;;3.05;;
66087;SDS011;52872;52.994;6.940;2023-01-05T09:12:57;13.43;;;2.83;;
66087;SDS011;52872;52.994;6.940;2023-01-05T09:15:24;11.30;;;3.50;;
66087;SDS011;52872;52.994;6.940;2023-01-05T09:17:51;12.55;;;3.28;;
66087;SDS011;52872;52.994;6.940;2023-01-05T09:20:18;16.33;;;3.03;;
66087;SDS011;52872;52.994;6.940;2023-01-05T09:22:45;12.73;;;3.67;;
66087;SDS011;52872;52.994;6.940;2023-01-05T09:25:12;12.77;;;2.88;;
66087;SDS011;52872;52.994;6.940;2023-01-05T09:27:39;19.23;;;3.15;;
66087;SDS011;52872;52.994;6.940;2023-01-05T09:30:07;15.48;;;3.28;;
66087;SDS011;52872;52.994;6.940;2023-01-05T09:32:35;16.48;;;4.05;;
66087;SDS011;52872;52.994;6.940;2023-01-05T09:35:03;15.38;;;2.70;;
66087;SDS011;52872;52.994;6.940;2023-01-05T09:37:30;11.25;;;3.55;;
66087;SDS011;52872;52.994;6.940;2023-01-05T09:39:57;10.90;;;2.65;;
66087;SDS011;52872;52.994;6.940;2023-01-05T09:42:24;12.25;;;2.65;;
66087;SDS011;52872;52.994;6.940;2023-01-05T09:44:58;11.32;;;2.97;;
66087;SDS011;52872;52.994;6.940;2023-01-05T09:47:37;8.13;;;2.55;;
66087;SDS011;52872;52.994;6.940;2023-01-05T09:50:11;13.55;;;2.63;;
66087;SDS011;52872;52.994;6.940;2023-01-05T09:52:47;14.93;;;2.75;;
66087;SDS011;52872;52.994;6.940;2023-01-05T09:55:17;20.58;;;3.70;;
66087;SDS011;52872;52.994;6.940;2023-01-05T09:58:03;12.63;;;2.70;;
66087;SDS011;52872;52.994;6.940;2023-01-05T10:00:33;14.43;;;2.95;;
66087;SDS011;52872;52.994;6.940;2023-01-05T10:03:10;17.80;;;2.83;;
66087;SDS011;52872;52.994;6.940;2023-01-05T10:06:04;12.05;;;2.67;;
66087;SDS011;52872;52.994;6.940;2023-01-05T10:11:06;13.77;;;2.88;;
66087;SDS011;52872;52.994;6.940;2023-01-05T10:14:00;17.17;;;2.95;;
66087;SDS011;52872;52.994;6.940;2023-01-05T10:16:32;19.00;;;3.00;;
66087;SDS011;52872;52.994;6.940;2023-01-05T10:18:59;10.48;;;2.47;;
66087;SDS011;52872;52.994;6.940;2023-01-05T10:21:30;14.25;;;3.50;;
66087;SDS011;52872;52.994;6.940;2023-01-05T10:27:10;20.00;;;3.97;;
66087;SDS011;52872;52.994;6.940;2023-01-05T10:30:00;15.35;;;3.17;;
66087;SDS011;52872;52.994;6.940;2023-01-05T10:32:59;21.15;;;3.30;;
66087;SDS011;52872;52.994;6.940;2023-01-05T10:38:36;12.95;;;3.05;;
66087;SDS011;52872;52.994;6.940;2023-01-05T10:46:45;12.85;;;2.75;;
66087;SDS011;52872;52.994;6.940;2023-01-05T10:49:18;13.35;;;3.65;;
66087;SDS011;52872;52.994;6.940;2023-01-05T10:51:49;12.57;;;2.85;;
66087;SDS011;52872;52.994;6.940;2023-01-05T11:02:35;13.23;;;2.88;;
66087;SDS011;52872;52.994;6.940;2023-01-05T11:07:45;15.35;;;3.40;;
66087;SDS011;52872;52.994;6.940;2023-01-05T11:10:37;13.93;;;2.78;;
66087;SDS011;52872;52.994;6.940;2023-01-05T11:13:15;9.85;;;3.30;;
66087;SDS011;52872;52.994;6.940;2023-01-05T11:15:58;13.38;;;2.78;;
66087;SDS011;52872;52.994;6.940;2023-01-05T11:21:23;16.27;;;3.05;;
66087;SDS011;52872;52.994;6.940;2023-01-05T11:26:53;11.25;;;3.30;;
66087;SDS011;52872;52.994;6.940;2023-01-05T11:29:22;14.27;;;3.17;;
66087;SDS011;52872;52.994;6.940;2023-01-05T11:44:54;13.88;;;3.15;;
66087;SDS011;52872;52.994;6.940;2023-01-05T11:52:39;11.32;;;2.72;;
66087;SDS011;52872;52.994;6.940;2023-01-05T11:55:25;19.50;;;3.20;;
66087;SDS011;52872;52.994;6.940;2023-01-05T11:57:58;9.93;;;2.47;;
66087;SDS011;52872;52.994;6.940;2023-01-05T12:17:13;7.20;;;1.30;;
66087;SDS011;52872;52.994;6.940;2023-01-05T12:27:53;7.65;;;1.48;;
66087;SDS011;52872;52.994;6.940;2023-01-05T12:36:50;5.57;;;1.58;;
66087;SDS011;52872;52.994;6.940;2023-01-05T12:48:35;7.35;;;2.35;;
66087;SDS011;52872;52.994;6.940;2023-01-05T12:51:54;9.60;;;2.22;;
66087;SDS011;52872;52.994;6.940;2023-01-05T12:54:04;6.63;;;1.98;;
66087;SDS011;52872;52.994;6.940;2023-01-05T12:56:40;9.02;;;1.88;;
66087;SDS011;52872;52.994;6.940;2023-01-05T12:59:16;10.45;;;2.50;;
66087;SDS011;52872;52.994;6.940;2023-01-05T13:04:47;8.70;;;1.98;;
66087;SDS011;52872;52.994;6.940;2023-01-05T13:07:27;7.72;;;2.03;;
66087;SDS011;52872;52.994;6.940;2023-01-05T13:13:24;10.95;;;2.30;;
66087;SDS011;52872;52.994;6.940;2023-01-05T13:19:11;13.18;;;2.53;;
66087;SDS011;52872;52.994;6.940;2023-01-05T13:21:41;9.77;;;2.38;;
66087;SDS011;52872;52.994;6.940;2023-01-05T13:24:31;15.73;;;2.95;;
66087;SDS011;52872;52.994;6.940;2023-01-05T13:27:03;12.63;;;2.80;;
66087;SDS011;52872;52.994;6.940;2023-01-05T13:29:38;14.25;;;2.97;;
66087;SDS011;52872;52.994;6.940;2023-01-05T13:32:16;13.35;;;2.60;;
66087;SDS011;52872;52.994;6.940;2023-01-05T13:34:51;7.97;;;2.65;;
66087;SDS011;52872;52.994;6.940;2023-01-05T13:40:37;11.35;;;2.50;;
66087;SDS011;52872;52.994;6.940;2023-01-05T13:46:46;12.65;;;2.78;;
66087;SDS011;52872;52.994;6.940;2023-01-05T13:52:33;14.53;;;2.63;;
66087;SDS011;52872;52.994;6.940;2023-01-05T13:55:04;13.02;;;3.28;;
66087;SDS011;52872;52.994;6.940;2023-01-05T13:57:50;10.32;;;2.90;;
66087;SDS011;52872;52.994;6.940;2023-01-05T14:08:24;9.68;;;3.45;;
66087;SDS011;52872;52.994;6.940;2023-01-05T14:24:27;13.35;;;3.70;;
66087;SDS011;52872;52.994;6.940;2023-01-05T14:26:58;12.55;;;3.22;;
66087;SDS011;52872;52.994;6.940;2023-01-05T14:30:17;8.60;;;3.10;;
66087;SDS011;52872;52.994;6.940;2023-01-05T14:38:01;14.02;;;3.33;;
66087;SDS011;52872;52.994;6.940;2023-01-05T14:45:59;14.38;;;3.58;;
66087;SDS011;52872;52.994;6.940;2023-01-05T14:48:33;12.93;;;4.00;;
66087;SDS011;52872;52.994;6.940;2023-01-05T14:53:43;14.95;;;3.80;;
66087;SDS011;52872;52.994;6.940;2023-01-05T14:56:14;19.27;;;4.22;;
66087;SDS011;52872;52.994;6.940;2023-01-05T14:58:47;13.18;;;3.78;;
66087;SDS011;52872;52.994;6.940;2023-01-05T15:01:44;15.07;;;3.45;;
66087;SDS011;52872;52.994;6.940;2023-01-05T15:04:22;18.87;;;4.33;;
66087;SDS011;52872;52.994;6.940;2023-01-05T15:24:37;13.88;;;4.10;;
66087;SDS011;52872;52.994;6.940;2023-01-05T15:27:51;14.73;;;3.75;;
66087;SDS011;52872;52.994;6.940;2023-01-05T15:30:49;22.17;;;4.10;;
66087;SDS011;52872;52.994;6.940;2023-01-05T15:33:41;18.20;;;4.05;;
66087;SDS011;52872;52.994;6.940;2023-01-05T15:39:32;18.80;;;4.43;;
66087;SDS011;52872;52.994;6.940;2023-01-05T15:42:15;17.98;;;4.47;;
66087;SDS011;52872;52.994;6.940;2023-01-05T15:47:15;20.35;;;4.68;;
66087;SDS011;52872;52.994;6.940;2023-01-05T15:49:44;14.38;;;4.10;;
66087;SDS011;52872;52.994;6.940;2023-01-05T15:52:16;19.17;;;4.45;;
66087;SDS011;52872;52.994;6.940;2023-01-05T15:54:55;19.85;;;5.00;;
66087;SDS011;52872;52.994;6.940;2023-01-05T15:57:26;26.55;;;4.68;;
66087;SDS011;52872;52.994;6.940;2023-01-05T15:59:53;20.35;;;4.57;;
66087;SDS011;52872;52.994;6.940;2023-01-05T16:02:22;17.83;;;4.75;;
66087;SDS011;52872;52.994;6.940;2023-01-05T16:07:43;22.38;;;4.70;;
66087;SDS011;52872;52.994;6.940;2023-01-05T16:13:26;19.05;;;5.22;;
66087;SDS011;52872;52.994;6.940;2023-01-05T16:16:10;15.38;;;4.35;;
66087;SDS011;52872;52.994;6.940;2023-01-05T16:27:29;17.55;;;5.60;;
66087;SDS011;52872;52.994;6.940;2023-01-05T16:32:59;21.60;;;5.15;;
66087;SDS011;52872;52.994;6.940;2023-01-05T16:35:39;22.33;;;5.32;;
66087;SDS011;52872;52.994;6.940;2023-01-05T16:40:40;25.40;;;5.10;;
66087;SDS011;52872;52.994;6.940;2023-01-05T16:51:16;22.13;;;5.25;;
66087;SDS011;52872;52.994;6.940;2023-01-05T16:53:47;24.98;;;5.35;;
66087;SDS011;52872;52.994;6.940;2023-01-05T16:56:20;20.60;;;5.40;;
66087;SDS011;52872;52.994;6.940;2023-01-05T17:02:27;21.52;;;5.25;;
66087;SDS011;52872;52.994;6.940;2023-01-05T17:04:59;20.98;;;4.97;;
66087;SDS011;52872;52.994;6.940;2023-01-05T17:07:26;19.35;;;5.18;;
66087;SDS011;52872;52.994;6.940;2023-01-05T17:09:53;22.27;;;5.00;;
66087;SDS011;52872;52.994;6.940;2023-01-05T17:12:20;23.42;;;5.80;;
66087;SDS011;52872;52.994;6.940;2023-01-05T17:14:47;23.00;;;4.90;;
66087;SDS011;52872;52.994;6.940;2023-01-05T17:17:14;20.58;;;5.07;;
66087;SDS011;52872;52.994;6.940;2023-01-05T17:19:42;21.83;;;5.32;;
66087;SDS011;52872;52.994;6.940;2023-01-05T17:22:11;24.70;;;6.15;;
66087;SDS011;52872;52.994;6.940;2023-01-05T17:24:42;26.08;;;4.85;;
66087;SDS011;52872;52.994;6.940;2023-01-05T17:27:12;20.42;;;4.80;;
66087;SDS011;52872;52.994;6.940;2023-01-05T17:29:39;27.33;;;6.00;;
66087;SDS011;52872;52.994;6.940;2023-01-05T17:32:06;24.55;;;5.82;;
66087;SDS011;52872;52.994;6.940;2023-01-05T17:34:36;32.33;;;8.88;;
66087;SDS011;52872;52.994;6.940;2023-01-05T17:37:04;20.98;;;5.38;;
66087;SDS011;52872;52.994;6.940;2023-01-05T17:39:31;26.15;;;8.40;;
66087;SDS011;52872;52.994;6.940;2023-01-05T17:41:58;21.88;;;6.68;;
66087;SDS011;52872;52.994;6.940;2023-01-05T17:44:46;26.95;;;9.50;;
66087;SDS011;52872;52.994;6.940;2023-01-05T17:47:13;35.10;;;14.52;;
66087;SDS011;52872;52.994;6.940;2023-01-05T17:49:40;24.33;;;6.47;;
66087;SDS011;52872;52.994;6.940;2023-01-05T17:52:09;24.05;;;6.00;;
66087;SDS011;52872;52.994;6.940;2023-01-05T17:54:39;27.58;;;7.07;;
66087;SDS011;52872;52.994;6.940;2023-01-05T17:57:08;25.98;;;5.65;;
66087;SDS011;52872;52.994;6.940;2023-01-05T17:59:48;21.85;;;5.38;;
66087;SDS011;52872;52.994;6.940;2023-01-05T18:02:18;25.52;;;5.68;;
66087;SDS011;52872;52.994;6.940;2023-01-05T18:04:49;27.50;;;5.68;;
66087;SDS011;52872;52.994;6.940;2023-01-05T18:07:17;24.05;;;6.30;;
66087;SDS011;52872;52.994;6.940;2023-01-05T18:09:44;20.33;;;4.72;;
66087;SDS011;52872;52.994;6.940;2023-01-05T18:12:11;23.52;;;5.45;;
66087;SDS011;52872;52.994;6.940;2023-01-05T18:14:40;19.38;;;5.03;;
66087;SDS011;52872;52.994;6.940;2023-01-05T18:17:11;20.40;;;5.13;;
66087;SDS011;52872;52.994;6.940;2023-01-05T18:19:41;25.25;;;5.78;;
66087;SDS011;52872;52.994;6.940;2023-01-05T18:22:13;18.15;;;5.20;;
66087;SDS011;52872;52.994;6.940;2023-01-05T18:24:41;20.42;;;5.72;;
66087;SDS011;52872;52.994;6.940;2023-01-05T18:27:14;30.10;;;13.10;;
66087;SDS011;52872;52.994;6.940;2023-01-05T18:29:45;29.25;;;6.53;;
66087;SDS011;52872;52.994;6.940;2023-01-05T18:32:17;23.95;;;6.57;;
66087;SDS011;52872;52.994;6.940;2023-01-05T18:34:44;25.23;;;6.53;;
66087;SDS011;52872;52.994;6.940;2023-01-05T18:37:14;23.83;;;5.43;;
66087;SDS011;52872;52.994;6.940;2023-01-05T18:42:17;25.42;;;9.57;;
66087;SDS011;52872;52.994;6.940;2023-01-05T18:44:45;28.13;;;7.05;;
66087;SDS011;52872;52.994;6.940;2023-01-05T18:47:12;21.48;;;6.40;;
66087;SDS011;52872;52.994;6.940;2023-01-05T18:49:47;29.40;;;6.82;;
66087;SDS011;52872;52.994;6.940;2023-01-05T18:52:16;20.52;;;6.53;;
66087;SDS011;52872;52.994;6.940;2023-01-05T18:54:46;22.80;;;6.32;;
66087;SDS011;52872;52.994;6.940;2023-01-05T18:57:13;23.48;;;6.78;;
66087;SDS011;52872;52.994;6.940;2023-01-05T18:59:40;26.63;;;6.68;;
66087;SDS011;52872;52.994;6.940;2023-01-05T19:02:11;24.77;;;6.82;;
66087;SDS011;52872;52.994;6.940;2023-01-05T19:04:41;24.77;;;7.55;;